createdAt,value
2018-03-04T13:04:29.360Z,2.30
2018-03-04T13:06:57.584Z,2.30
2018-03-04T13:09:25.126Z,0.80
2018-03-04T13:11:52.569Z,2.17
2018-03-04T13:14:20.069Z,3.70
2018-03-04T13:16:47.523Z,1.00
2018-03-04T13:19:15.095Z,1.33
2018-03-04T13:21:42.584Z,0.67
2018-03-04T13:24:10.097Z,4.70
2018-03-04T13:26:37.542Z,0.97
2018-03-04T13:29:05.113Z,0.60
2018-03-04T13:31:32.781Z,1.50
2018-03-04T13:34:00.430Z,0.53
2018-03-04T13:36:27.888Z,2.63
2018-03-04T13:38:55.364Z,1.20
2018-03-04T13:41:23.589Z,2.47
2018-03-04T13:43:51.261Z,1.97
2018-03-04T13:46:18.722Z,0.87
2018-03-04T13:48:46.197Z,2.50
2018-03-04T13:51:13.678Z,1.13
2018-03-04T13:53:41.906Z,4.40
2018-03-04T13:56:09.378Z,0.90
2018-03-04T13:58:36.926Z,1.63
2018-03-04T14:01:04.384Z,0.80
2018-03-04T14:03:31.953Z,1.13
2018-03-04T14:05:59.453Z,0.80
2018-03-04T14:08:26.912Z,1.67
2018-03-04T14:10:55.042Z,0.60
2018-03-04T14:13:22.519Z,1.00
2018-03-04T14:15:50.756Z,0.60
2018-03-04T14:18:18.255Z,0.60
2018-03-04T14:20:45.705Z,1.33
2018-03-04T14:23:13.232Z,1.30
2018-03-04T14:25:40.707Z,2.13
2018-03-04T14:28:08.194Z,2.27
2018-03-04T14:30:35.637Z,2.83
2018-03-04T14:33:03.128Z,2.90
2018-03-04T14:35:30.604Z,3.17
2018-03-04T14:37:58.077Z,2.10
2018-03-04T14:40:26.348Z,2.50
2018-03-04T14:42:54.626Z,6.70
2018-03-04T14:45:22.087Z,4.30
2018-03-04T14:47:50.335Z,3.33
2018-03-04T14:50:17.804Z,2.40
2018-03-04T14:52:46.964Z,0.87
2018-03-04T14:55:15.197Z,1.07
2018-03-04T14:57:43.642Z,2.50
2018-03-04T15:00:11.120Z,0.60
2018-03-04T15:02:39.357Z,3.90
2018-03-04T15:05:06.832Z,0.70
2018-03-04T15:07:34.291Z,0.70
2018-03-04T15:10:01.848Z,1.23
2018-03-04T15:12:29.313Z,1.33
2018-03-04T15:14:57.578Z,0.80
2018-03-04T15:17:25.128Z,1.43
2018-03-04T15:19:53.430Z,1.73
2018-03-04T15:22:21.673Z,1.23
2018-03-04T15:24:49.134Z,0.97
2018-03-04T15:27:16.609Z,1.50
2018-03-04T15:29:44.870Z,0.60
2018-03-04T15:32:12.369Z,1.27
2018-03-04T15:34:39.881Z,0.80
2018-03-04T15:37:07.350Z,1.00
2018-03-04T15:39:34.850Z,0.90
2018-03-04T15:42:02.295Z,4.00
2018-03-04T15:44:29.750Z,2.00
2018-03-04T15:46:57.235Z,1.43
2018-03-04T15:49:24.704Z,1.77
2018-03-04T15:51:52.189Z,4.60
2018-03-04T15:54:20.408Z,1.10
2018-03-04T15:56:47.926Z,0.77
2018-03-04T15:59:15.389Z,0.87
2018-03-04T16:01:43.634Z,3.40
2018-03-04T16:04:11.194Z,0.83
2018-03-04T16:06:38.751Z,1.60
2018-03-04T16:09:07.018Z,1.33
2018-03-04T16:11:34.484Z,0.73
2018-03-04T16:14:02.031Z,7.50
2018-03-04T16:16:29.690Z,1.70
2018-03-04T16:18:57.937Z,3.20
2018-03-04T16:21:25.413Z,2.20
2018-03-04T16:23:52.874Z,3.60
2018-03-04T16:26:20.353Z,3.20
2018-03-04T16:28:47.902Z,2.23
2018-03-04T16:31:15.387Z,3.67
2018-03-04T16:33:43.658Z,2.20
2018-03-04T16:36:11.208Z,3.23
2018-03-04T16:38:39.445Z,1.50
2018-03-04T16:41:06.927Z,1.97
2018-03-04T16:43:34.434Z,3.60
2018-03-04T16:46:01.893Z,2.00
2018-03-04T16:48:29.382Z,4.00
2018-03-04T16:50:56.862Z,2.73
2018-03-04T16:53:25.210Z,2.47
2018-03-04T16:55:52.674Z,1.67
2018-03-04T16:58:20.152Z,1.83
2018-03-04T17:00:48.548Z,2.37
2018-03-04T17:03:16.249Z,4.27
2018-03-04T17:05:43.764Z,1.83
2018-03-04T17:08:11.282Z,3.43
2018-03-04T17:10:38.777Z,3.07
2018-03-04T17:13:06.299Z,3.40
2018-03-04T17:15:33.760Z,2.17
2018-03-04T17:18:01.211Z,4.83
2018-03-04T17:20:28.690Z,2.07
2018-03-04T17:22:56.947Z,2.10
2018-03-04T17:25:24.481Z,6.03
2018-03-04T17:27:52.077Z,2.13
2018-03-04T17:30:20.326Z,3.00
2018-03-04T17:32:47.773Z,2.77
2018-03-04T17:35:15.225Z,6.60
2018-03-04T17:37:42.828Z,6.53
2018-03-04T17:40:11.074Z,3.33
2018-03-04T17:42:38.526Z,5.37
2018-03-04T17:45:06.001Z,8.50
2018-03-04T17:47:34.241Z,4.43
2018-03-04T17:50:01.705Z,9.87
2018-03-04T17:52:29.328Z,4.40
2018-03-04T17:54:56.828Z,7.30
2018-03-04T17:57:24.277Z,4.00
2018-03-04T17:59:51.823Z,3.80
2018-03-04T18:02:19.272Z,7.60
2018-03-04T18:04:46.958Z,10.13
2018-03-04T18:07:14.652Z,2.70
2018-03-04T18:09:42.901Z,4.20
2018-03-04T18:12:10.418Z,5.60
2018-03-04T18:14:37.877Z,4.80
2018-03-04T18:17:05.378Z,5.30
2018-03-04T18:19:32.926Z,5.23
2018-03-04T18:22:00.375Z,7.67
2018-03-04T18:24:27.894Z,9.57
2018-03-04T18:26:56.655Z,5.97
2018-03-04T18:29:24.135Z,7.23
2018-03-04T18:31:51.608Z,5.13
2018-03-04T18:34:19.089Z,5.60
2018-03-04T18:36:46.554Z,18.90
2018-03-04T18:39:14.030Z,8.03
2018-03-04T18:41:42.297Z,4.80
2018-03-04T18:44:10.620Z,8.90
2018-03-04T18:46:38.113Z,9.30
2018-03-04T18:49:05.661Z,8.00
2018-03-04T18:51:33.369Z,10.47
2018-03-04T18:54:00.829Z,15.30
2018-03-04T18:56:28.306Z,8.50
2018-03-04T18:58:55.797Z,10.97
2018-03-04T19:01:23.276Z,6.70
2018-03-04T19:03:51.514Z,11.20
2018-03-04T19:06:19.082Z,16.80
2018-03-04T19:08:47.301Z,11.33
2018-03-04T19:11:14.785Z,12.53
2018-03-04T19:13:42.263Z,6.83
2018-03-04T19:16:09.765Z,13.43
2018-03-04T19:18:37.269Z,7.67
2018-03-04T19:21:04.730Z,12.60
2018-03-04T19:23:32.261Z,8.27
2018-03-04T19:26:00.457Z,7.80
2018-03-04T19:28:27.958Z,8.90
2018-03-04T19:30:56.211Z,9.07
2018-03-04T19:33:23.648Z,10.73
2018-03-04T19:35:51.154Z,9.27
2018-03-04T19:38:18.600Z,8.33
2018-03-04T19:40:46.222Z,12.70
2018-03-04T19:43:13.818Z,7.90
2018-03-04T19:45:42.048Z,7.57
2018-03-04T19:48:09.623Z,6.33
2018-03-04T19:50:37.235Z,7.00
2018-03-04T19:53:04.732Z,9.00
2018-03-04T19:55:32.220Z,4.07
2018-03-04T19:58:00.478Z,3.53
2018-03-04T20:00:28.015Z,3.47
2018-03-04T20:02:55.466Z,6.37
2018-03-04T20:05:23.062Z,4.00
2018-03-04T20:07:51.516Z,4.50
2018-03-04T20:10:18.981Z,3.30
2018-03-04T20:12:46.433Z,4.40
2018-03-04T20:15:13.922Z,3.43
2018-03-04T20:17:41.377Z,1.87
2018-03-04T20:20:08.825Z,8.00
2018-03-04T20:22:37.161Z,5.67
2018-03-04T20:25:04.637Z,6.03
2018-03-04T20:27:32.082Z,4.60
2018-03-04T20:29:59.633Z,4.20
2018-03-04T20:32:27.182Z,4.30
2018-03-04T20:34:54.671Z,5.77
2018-03-04T20:37:22.921Z,2.77
2018-03-04T20:39:50.433Z,4.17
2018-03-04T20:42:17.920Z,3.53
2018-03-04T20:44:45.504Z,3.37
2018-03-04T20:47:12.982Z,3.17
2018-03-04T20:49:41.242Z,3.83
2018-03-04T20:52:09.465Z,3.87
2018-03-04T20:54:37.163Z,5.70
2018-03-04T20:57:05.425Z,3.20
2018-03-04T20:59:32.894Z,7.53
2018-03-04T21:02:00.419Z,2.97
2018-03-04T21:04:27.899Z,4.57
2018-03-04T21:06:55.373Z,3.50
2018-03-04T21:09:22.820Z,3.30
2018-03-04T21:11:50.311Z,3.87
2018-03-04T21:14:18.521Z,4.90
2018-03-04T21:16:46.008Z,6.23
2018-03-04T21:19:13.454Z,7.40
2018-03-04T21:21:40.924Z,8.40
2018-03-04T21:24:08.384Z,10.90
2018-03-04T21:26:35.834Z,11.63
2018-03-04T21:29:03.322Z,8.20
2018-03-04T21:31:30.775Z,6.53
2018-03-04T21:33:58.997Z,8.97
2018-03-04T21:36:26.445Z,7.17
2018-03-04T21:38:53.896Z,6.60
2018-03-04T21:41:21.373Z,9.83
2018-03-04T21:43:48.899Z,8.10
2018-03-04T21:46:16.410Z,5.33
2018-03-04T21:48:44.664Z,6.67
2018-03-04T21:51:12.121Z,5.20
2018-03-04T21:53:39.564Z,7.13
2018-03-04T21:56:07.048Z,6.80
2018-03-04T21:58:34.866Z,7.50
2018-03-04T22:01:02.308Z,3.40
2018-03-04T22:03:29.776Z,4.87
2018-03-04T22:05:57.246Z,3.27
2018-03-04T22:08:24.706Z,6.50
2018-03-04T22:10:52.156Z,3.20
2018-03-04T22:13:19.631Z,1.33
2018-03-04T22:15:47.082Z,1.30
2018-03-04T22:18:14.541Z,0.77
2018-03-04T22:20:42.017Z,1.13
2018-03-04T22:23:10.246Z,1.10
2018-03-04T22:25:37.707Z,1.87
2018-03-04T22:28:05.181Z,1.10
2018-03-04T22:30:32.638Z,1.00
2018-03-04T22:33:00.093Z,0.80
2018-03-04T22:35:27.563Z,1.20
2018-03-04T22:37:55.825Z,1.10
2018-03-04T22:40:23.280Z,2.00
2018-03-04T22:42:50.766Z,0.50
2018-03-04T22:45:19.000Z,3.03
2018-03-04T22:47:46.459Z,0.80
2018-03-04T22:50:14.020Z,2.10
2018-03-04T22:52:41.588Z,0.93
2018-03-04T22:55:09.050Z,0.90
2018-03-04T22:57:36.593Z,5.03
2018-03-04T23:00:04.044Z,1.53
2018-03-04T23:02:31.605Z,0.90
2018-03-04T23:04:59.874Z,2.90
2018-03-04T23:07:27.325Z,0.80
2018-03-04T23:09:54.769Z,1.43
2018-03-04T23:12:22.241Z,1.17
2018-03-04T23:14:49.810Z,2.53
2018-03-04T23:17:17.253Z,0.80
2018-03-04T23:19:44.732Z,0.97
2018-03-04T23:22:12.265Z,5.80
2018-03-04T23:24:39.746Z,4.30
2018-03-04T23:27:07.290Z,0.73
2018-03-04T23:29:34.850Z,0.70
2018-03-04T23:32:02.321Z,1.33
2018-03-04T23:34:30.676Z,0.50
2018-03-04T23:36:58.164Z,0.87
2018-03-04T23:39:26.391Z,0.73
2018-03-04T23:41:53.853Z,1.63
2018-03-04T23:44:21.420Z,0.63
2018-03-04T23:46:48.973Z,1.17
2018-03-04T23:49:16.537Z,0.70
2018-03-04T23:51:43.998Z,0.63
2018-03-04T23:54:11.448Z,0.50
2018-03-04T23:56:38.925Z,1.00
2018-03-04T23:59:06.405Z,0.40
